Time;durP1;ratioP1;P1;durP2;ratioP2;P2;SDS_P1;SDS_P2;PMS_P1;PMS_P2;Temp;Humidity;BMP_temperature;BMP_pressure;BME280_temperature;BME280_humidity;BME280_pressure;Samples;Min_cycle;Max_cycle;Signal;HPM_P1;HPM_P2
2023/04/15 00:01:32;;;;;;;;;;;;;;;10.01;43.68;97203.22;5052595;28;19934;-58
2023/04/15 00:03:58;;;;;;;;;;;;;;;10.11;42.79;97196.97;5025467;28;20827;-58
2023/04/15 00:06:26;;;;;;;;;;;;;;;10.11;43.06;97200.41;5042218;28;20001;-58
2023/04/15 00:08:51;;;;;;;;;;;;;;;9.85;43.63;97168.81;5053712;28;19925;-58
2023/04/15 00:11:17;;;;;;;;;;;;;;;9.98;44.58;97197.56;5036747;28;19939;-58
2023/04/15 00:13:42;;;;;;;;;;;;;;;9.92;44.72;97193.91;5025155;28;19925;-58
2023/04/15 00:16:08;;;;;;;;;;;;;;;9.92;44.46;97180.13;5053251;28;20003;-57
2023/04/15 00:18:33;;;;;;;;;;;;;;;9.86;44.89;97184.22;5042674;28;19981;-58
2023/04/15 00:20:59;;;;;;;;;;;;;;;9.77;44.83;97190.47;5046356;28;20387;-58
2023/04/15 00:23:24;;;;;;;;;;;;;;;9.71;45.50;97184.19;5061172;28;20010;-57
2023/04/15 00:25:50;;;;;;;;;;;;;;;9.68;45.38;97186.31;5051733;28;19974;-58
2023/04/15 00:28:16;;;;;;;;;;;;;;;9.57;45.59;97179.75;5054198;28;19960;-58
2023/04/15 00:30:41;;;;;;;;;;;;;;;9.68;45.25;97181.94;5058232;28;19965;-58
2023/04/15 00:33:09;;;;;;;;;;;;;;;9.62;45.11;97174.84;5058036;28;19979;-58
2023/04/15 00:35:36;;;;;;;;;;;;;;;9.68;45.00;97166.34;5021640;28;19935;-58
2023/04/15 00:38:04;;;;;;;;;;;;;;;9.78;44.13;97173.88;5063705;28;19931;-58
2023/04/15 00:40:30;;;;;;;;;;;;;;;9.78;44.38;97171.28;5036181;28;19986;-58
2023/04/15 00:42:55;;;;;;;;;;;;;;;9.72;44.99;97177.19;5028825;28;19928;-58
2023/04/15 00:45:20;;;;;;;;;;;;;;;9.74;44.23;97168.25;5078441;28;19917;-58
2023/04/15 00:47:46;;;;;;;;;;;;;;;9.79;44.30;97165.94;5054668;28;20022;-58
2023/04/15 00:50:11;;;;;;;;;;;;;;;9.75;44.35;97167.28;5078954;28;19920;-58
2023/04/15 00:52:37;;;;;;;;;;;;;;;9.77;44.19;97160.13;5056760;28;19924;-59
2023/04/15 00:55:04;;;;;;;;;;;;;;;9.81;43.61;97153.56;5040243;28;19928;-59
2023/04/15 00:57:30;;;;;;;;;;;;;;;9.86;43.31;97168.66;5095174;28;19916;-58
2023/04/15 00:59:56;;;;;;;;;;;;;;;9.88;42.39;97160.69;5054421;28;20712;-59
2023/04/15 01:02:24;;;;;;;;;;;;;;;9.92;42.34;97159.34;5056067;28;19959;-59
2023/04/15 01:04:49;;;;;;;;;;;;;;;9.93;42.74;97159.19;5064716;28;20511;-58
2023/04/15 01:07:14;;;;;;;;;;;;;;;9.85;42.70;97159.22;5059312;28;20383;-59
2023/04/15 01:09:45;;;;;;;;;;;;;;;9.93;43.64;97163.53;5056215;28;20039;-59
2023/04/15 01:12:11;;;;;;;;;;;;;;;9.85;43.24;97166.22;5066714;28;19954;-58
2023/04/15 01:14:36;;;;;;;;;;;;;;;9.78;43.19;97163.50;5063649;28;20371;-58
2023/04/15 01:17:01;;;;;;;;;;;;;;;9.74;43.48;97165.63;5050108;28;19931;-58
2023/04/15 01:19:27;;;;;;;;;;;;;;;9.88;42.71;97160.69;5075243;28;20466;-59
2023/04/15 01:21:53;;;;;;;;;;;;;;;9.85;42.06;97156.63;5065503;28;19935;-59
2023/04/15 01:24:18;;;;;;;;;;;;;;;9.90;43.12;97167.31;5061540;28;19920;-59
2023/04/15 01:26:46;;;;;;;;;;;;;;;9.87;42.95;97166.84;5064107;28;19968;-59
2023/04/15 01:29:14;;;;;;;;;;;;;;;9.89;43.52;97170.06;5067755;28;19920;-58
2023/04/15 01:31:45;;;;;;;;;;;;;;;9.85;43.68;97166.22;5061181;28;19959;-58
2023/04/15 01:34:10;;;;;;;;;;;;;;;9.75;43.76;97169.88;5043264;28;19959;-59
2023/04/15 01:36:35;;;;;;;;;;;;;;;9.75;44.35;97172.47;5036773;28;20017;-59
2023/04/15 01:39:01;;;;;;;;;;;;;;;9.78;44.78;97161.75;5080239;28;19920;-58
2023/04/15 01:41:26;;;;;;;;;;;;;;;9.80;44.56;97164.97;5060856;28;19931;-58
2023/04/15 01:43:52;;;;;;;;;;;;;;;9.79;44.62;97162.53;5052806;28;19924;-59
2023/04/15 01:46:17;;;;;;;;;;;;;;;9.70;43.99;97163.59;5052115;28;20866;-59
2023/04/15 01:48:42;;;;;;;;;;;;;;;9.69;43.93;97167.97;5038298;28;20421;-58
2023/04/15 01:51:08;;;;;;;;;;;;;;;9.45;44.52;97132.63;5056680;28;19921;-58
2023/04/15 01:53:33;;;;;;;;;;;;;;;9.62;44.39;97167.06;5032652;28;19921;-58
2023/04/15 01:55:58;;;;;;;;;;;;;;;9.63;44.42;97171.25;5044610;28;19924;-58
2023/04/15 01:58:24;;;;;;;;;;;;;;;9.60;44.43;97174.19;5041977;28;19927;-58
2023/04/15 02:00:49;;;;;;;;;;;;;;;9.74;44.48;97180.41;5041380;28;20032;-59
2023/04/15 02:03:14;;;;;;;;;;;;;;;9.72;44.75;97180.59;5041548;28;20020;-59
2023/04/15 02:05:39;;;;;;;;;;;;;;;9.76;45.59;97178.44;5064081;28;20294;-58
2023/04/15 02:08:05;;;;;;;;;;;;;;;9.72;46.69;97172.81;5022161;28;19917;-58
2023/04/15 02:10:30;;;;;;;;;;;;;;;9.76;47.33;97181.03;5039200;28;19955;-58
2023/04/15 02:12:56;;;;;;;;;;;;;;;9.77;48.14;97182.69;5041840;28;19917;-58
2023/04/15 02:15:21;;;;;;;;;;;;;;;9.86;48.17;97173.03;5048509;28;19920;-58
2023/04/15 02:17:49;;;;;;;;;;;;;;;9.90;48.05;97174.28;5042584;28;19970;-58
2023/04/15 02:20:15;;;;;;;;;;;;;;;9.90;48.80;97174.28;5064241;28;19924;-58
2023/04/15 02:22:40;;;;;;;;;;;;;;;9.90;48.88;97167.31;5066825;28;19930;-58
2023/04/15 02:25:07;;;;;;;;;;;;;;;9.86;50.50;97173.03;5036038;28;19917;-58
2023/04/15 02:27:32;;;;;;;;;;;;;;;9.81;49.46;97171.75;5022275;28;19935;-58
2023/04/15 02:29:57;;;;;;;;;;;;;;;9.76;49.34;97176.66;5063181;28;19946;-58
2023/04/15 02:32:25;;;;;;;;;;;;;;;9.72;51.13;97174.59;5044089;28;19967;-58
2023/04/15 02:34:50;;;;;;;;;;;;;;;9.66;51.54;97172.72;5045665;28;19920;-58
2023/04/15 02:37:19;;;;;;;;;;;;;;;9.70;50.71;97177.34;5041483;28;19987;-58
2023/04/15 02:39:44;;;;;;;;;;;;;;;9.66;50.72;97177.91;5065954;28;19995;-58
2023/04/15 02:42:10;;;;;;;;;;;;;;;9.51;50.91;97180.41;5065794;28;20338;-58
2023/04/15 02:44:36;;;;;;;;;;;;;;;9.43;50.88;97184.69;5046387;28;20027;-58
2023/04/15 02:47:02;;;;;;;;;;;;;;;9.36;50.69;97182.94;5031765;28;19921;-58
2023/04/15 02:49:29;;;;;;;;;;;;;;;9.26;51.06;97187.56;5017132;28;20360;-58
2023/04/15 02:51:55;;;;;;;;;;;;;;;9.17;50.61;97185.00;5029826;28;19916;-58
2023/04/15 02:54:21;;;;;;;;;;;;;;;9.05;50.57;97186.34;5055814;28;19931;-58
2023/04/15 02:56:47;;;;;;;;;;;;;;;9.16;51.04;97185.16;5045559;28;19952;-58
2023/04/15 02:59:15;;;;;;;;;;;;;;;8.96;51.76;97193.38;5026482;28;20014;-57
2023/04/15 03:01:40;;;;;;;;;;;;;;;8.98;51.66;97191.44;5052547;28;19927;-58
2023/04/15 03:04:07;;;;;;;;;;;;;;;8.85;52.35;97189.38;5043093;28;20280;-58
2023/04/15 03:06:33;;;;;;;;;;;;;;;9.03;52.00;97190.91;5068330;28;19920;-58
2023/04/15 03:09:02;;;;;;;;;;;;;;;8.98;52.69;97188.00;5038332;28;20458;-59
2023/04/15 03:11:34;;;;;;;;;;;;;;;9.08;51.80;97185.22;5044579;28;19917;-58
2023/04/15 03:13:59;;;;;;;;;;;;;;;8.97;52.16;97189.00;5048849;28;20398;-58
2023/04/15 03:16:25;;;;;;;;;;;;;;;8.82;51.89;97194.88;5050027;28;19955;-58
2023/04/15 03:18:52;;;;;;;;;;;;;;;8.74;52.48;97192.31;5062101;28;20363;-58
2023/04/15 03:21:18;;;;;;;;;;;;;;;8.55;53.26;97192.72;5055124;28;19921;-59
2023/04/15 03:23:44;;;;;;;;;;;;;;;8.64;52.94;97194.31;5045276;28;19921;-58
2023/04/15 03:26:22;;;;;;;;;;;;;;;8.68;53.81;97198.19;5045666;28;20405;-59
2023/04/15 03:28:47;;;;;;;;;;;;;;;8.68;54.06;97197.38;5043229;28;19917;-58
2023/04/15 03:31:13;;;;;;;;;;;;;;;8.58;54.05;97194.97;5059278;28;20344;-59
2023/04/15 03:33:38;;;;;;;;;;;;;;;8.50;54.36;97195.78;5031154;28;20005;-58
2023/04/15 03:36:03;;;;;;;;;;;;;;;8.33;54.14;97194.19;5023096;28;19928;-59
2023/04/15 03:38:28;;;;;;;;;;;;;;;8.36;53.65;97197.28;5026272;28;19959;-58
2023/04/15 03:40:54;;;;;;;;;;;;;;;8.36;54.06;97192.09;5051211;28;20016;-58
2023/04/15 03:43:20;;;;;;;;;;;;;;;8.34;55.18;97188.88;5037042;28;19929;-59
2023/04/15 03:45:46;;;;;;;;;;;;;;;8.34;55.69;97188.88;5036903;28;19936;-58
2023/04/15 03:48:11;;;;;;;;;;;;;;;8.38;55.84;97189.34;5059358;28;19924;-58
2023/04/15 03:50:36;;;;;;;;;;;;;;;8.26;54.43;97187.06;5062659;28;19974;-58
2023/04/15 03:53:01;;;;;;;;;;;;;;;8.20;54.70;97195.50;5044298;28;19924;-58
2023/04/15 03:55:27;;;;;;;;;;;;;;;8.05;56.26;97190.19;5061464;28;19927;-58
2023/04/15 03:57:52;;;;;;;;;;;;;;;8.06;57.17;97198.75;5085751;28;20434;-58
2023/04/15 04:00:18;;;;;;;;;;;;;;;8.22;56.78;97196.16;5062405;28;20031;-59
2023/04/15 04:02:44;;;;;;;;;;;;;;;8.23;57.12;97200.38;5066609;28;19967;-59
2023/04/15 04:05:10;;;;;;;;;;;;;;;8.15;57.53;97194.38;5062332;28;19959;-58
2023/04/15 04:07:35;;;;;;;;;;;;;;;8.18;56.71;97194.06;5057795;28;19999;-58
2023/04/15 04:10:03;;;;;;;;;;;;;;;8.13;57.27;97194.53;5060470;28;21016;-58
2023/04/15 04:12:29;;;;;;;;;;;;;;;8.14;57.31;97195.34;5071054;28;19926;-59
2023/04/15 04:14:54;;;;;;;;;;;;;;;7.88;56.56;97198.91;5071557;28;19916;-58
2023/04/15 04:17:19;;;;;;;;;;;;;;;8.07;56.69;97201.19;5094027;28;19921;-59
2023/04/15 04:19:45;;;;;;;;;;;;;;;8.19;55.94;97201.66;5067000;28;19948;-58
2023/04/15 04:22:11;;;;;;;;;;;;;;;8.11;56.62;97201.66;5064872;28;20008;-58
2023/04/15 04:24:38;;;;;;;;;;;;;;;8.16;56.30;97196.81;5081487;28;20379;-59
2023/04/15 04:27:04;;;;;;;;;;;;;;;8.04;57.47;97203.28;5050957;28;20002;-59
2023/04/15 04:29:29;;;;;;;;;;;;;;;8.08;56.63;97209.75;5077014;28;20367;-58
2023/04/15 04:32:00;;;;;;;;;;;;;;;8.05;57.21;97212.69;5056985;28;19920;-58
2023/04/15 04:34:25;;;;;;;;;;;;;;;8.05;57.52;97220.47;5069833;28;19916;-58
2023/04/15 04:36:50;;;;;;;;;;;;;;;8.14;57.92;97218.66;5065331;28;19932;-58
2023/04/15 04:39:16;;;;;;;;;;;;;;;8.18;58.39;97218.16;5062552;28;20287;-59
2023/04/15 04:41:41;;;;;;;;;;;;;;;8.23;58.10;97213.31;5059947;28;19990;-58
2023/04/15 04:44:06;;;;;;;;;;;;;;;8.09;57.30;97222.53;5059960;28;19925;-58
2023/04/15 04:46:31;;;;;;;;;;;;;;;8.12;58.05;97223.97;5078826;28;19936;-59
2023/04/15 04:48:57;;;;;;;;;;;;;;;8.19;57.93;97224.16;5084198;28;19921;-58
2023/04/15 04:51:22;;;;;;;;;;;;;;;8.18;57.64;97225.94;5084096;28;19935;-58
2023/04/15 04:53:48;;;;;;;;;;;;;;;8.03;58.03;97235.31;5067034;28;19924;-59
2023/04/15 04:56:13;;;;;;;;;;;;;;;8.11;58.33;97230.16;5065000;28;19924;-58
2023/04/15 04:58:38;;;;;;;;;;;;;;;8.13;58.67;97227.41;5064260;28;19931;-59
2023/04/15 05:01:03;;;;;;;;;;;;;;;8.21;58.35;97235.16;5064841;28;19920;-59
2023/04/15 05:03:29;;;;;;;;;;;;;;;8.28;58.47;97238.72;5082790;28;20022;-58
2023/04/15 05:05:54;;;;;;;;;;;;;;;8.23;57.71;97234.03;5055946;28;19921;-58
2023/04/15 05:08:20;;;;;;;;;;;;;;;8.37;59.00;97235.13;5079443;28;20004;-58
2023/04/15 05:10:45;;;;;;;;;;;;;;;8.31;58.45;97230.63;5090140;28;19920;-58
2023/04/15 05:13:13;;;;;;;;;;;;;;;8.29;57.91;97235.16;5059922;28;19926;-58
2023/04/15 05:15:40;;;;;;;;;;;;;;;8.23;58.85;97238.38;5072700;28;19920;-58
2023/04/15 05:18:05;;;;;;;;;;;;;;;8.32;58.37;97237.41;5039955;28;20082;-59
2023/04/15 05:20:31;;;;;;;;;;;;;;;8.39;59.98;97247.91;5064780;28;20010;-59
2023/04/15 05:22:56;;;;;;;;;;;;;;;8.38;58.34;97248.91;5063811;28;19970;-59
2023/04/15 05:25:21;;;;;;;;;;;;;;;8.32;58.03;97252.94;5060072;28;19916;-58
2023/04/15 05:27:49;;;;;;;;;;;;;;;8.07;59.48;97252.97;5081659;28;20018;-58
2023/04/15 05:30:14;;;;;;;;;;;;;;;8.11;59.47;97260.41;5058098;28;19921;-59
2023/04/15 05:32:42;;;;;;;;;;;;;;;8.36;58.74;97254.25;5034644;28;20327;-58
2023/04/15 05:35:07;;;;;;;;;;;;;;;8.41;58.56;97256.34;5043895;28;19929;-58
2023/04/15 05:37:35;;;;;;;;;;;;;;;8.49;58.60;97250.34;5070497;28;20026;-58
2023/04/15 05:40:00;;;;;;;;;;;;;;;8.66;58.55;97263.13;5055297;28;20676;-58
2023/04/15 05:42:26;;;;;;;;;;;;;;;8.66;58.83;97251.94;5058313;28;19924;-59
2023/04/15 05:44:54;;;;;;;;;;;;;;;8.74;59.46;97259.69;5059316;28;19927;-58
2023/04/15 05:47:20;;;;;;;;;;;;;;;8.77;59.82;97266.34;5067913;28;19924;-58
2023/04/15 05:49:45;;;;;;;;;;;;;;;8.66;59.88;97270.91;5066812;28;19931;-59
2023/04/15 05:52:12;;;;;;;;;;;;;;;8.74;58.80;97271.84;5082639;28;20015;-59
2023/04/15 05:54:38;;;;;;;;;;;;;;;8.70;59.01;97273.97;5088383;28;19947;-58
2023/04/15 05:57:04;;;;;;;;;;;;;;;8.68;59.81;97269.94;5065023;28;20331;-58
2023/04/15 05:59:29;;;;;;;;;;;;;;;8.75;58.38;97273.47;5085303;28;19922;-58
2023/04/15 06:01:55;;;;;;;;;;;;;;;8.76;57.46;97273.31;5067024;28;21198;-58
2023/04/15 06:04:20;;;;;;;;;;;;;;;8.82;58.18;97272.66;5038107;28;20341;-58
2023/04/15 06:06:46;;;;;;;;;;;;;;;8.89;58.40;97280.56;5057447;28;20011;-58
2023/04/15 06:09:11;;;;;;;;;;;;;;;8.84;56.86;97278.47;5083669;28;19920;-59
2023/04/15 06:11:40;;;;;;;;;;;;;;;8.85;56.50;97280.09;5060080;28;19916;-59
2023/04/15 06:14:07;;;;;;;;;;;;;;;8.76;56.88;97282.84;5069117;28;19963;-58
2023/04/15 06:16:36;;;;;;;;;;;;;;;8.68;58.89;97275.91;5050888;28;20096;-59
2023/04/15 06:19:04;;;;;;;;;;;;;;;8.72;59.44;97282.38;5069790;28;19920;-58
2023/04/15 06:21:32;;;;;;;;;;;;;;;8.84;60.13;97281.06;5103024;28;20010;-58
2023/04/15 06:24:00;;;;;;;;;;;;;;;8.88;61.46;97285.91;5048769;28;21151;-58
2023/04/15 06:26:26;;;;;;;;;;;;;;;8.81;62.72;97291.75;5066675;28;20693;-59
2023/04/15 06:28:53;;;;;;;;;;;;;;;8.92;63.01;97282.00;5060563;28;19999;-59
2023/04/15 06:31:19;;;;;;;;;;;;;;;9.00;63.11;97284.59;5065461;28;19947;-59
2023/04/15 06:33:44;;;;;;;;;;;;;;;9.10;62.14;97292.16;5064774;28;19977;-58
2023/04/15 06:36:12;;;;;;;;;;;;;;;9.16;61.30;97292.31;5082862;28;19977;-59
2023/04/15 06:38:40;;;;;;;;;;;;;;;9.22;61.27;97301.22;5066925;28;19931;-59
2023/04/15 06:41:05;;;;;;;;;;;;;;;9.11;60.14;97270.44;5082384;28;19957;-58
2023/04/15 06:43:30;;;;;;;;;;;;;;;9.41;58.90;97300.78;5045629;28;19921;-59
2023/04/15 06:45:56;;;;;;;;;;;;;;;9.46;59.19;97302.88;5075154;28;20271;-58
2023/04/15 06:48:21;;;;;;;;;;;;;;;9.43;58.59;97308.41;5060088;28;19920;-58
2023/04/15 06:50:49;;;;;;;;;;;;;;;9.42;57.72;97306.81;5081513;28;19920;-59
2023/04/15 06:53:16;;;;;;;;;;;;;;;9.51;57.09;97305.78;5055202;28;20276;-59
2023/04/15 06:55:42;;;;;;;;;;;;;;;9.65;57.06;97306.03;5065457;28;20022;-58
2023/04/15 06:58:07;;;;;;;;;;;;;;;9.68;57.70;97305.69;5063336;28;19946;-59
2023/04/15 07:00:33;;;;;;;;;;;;;;;9.69;56.70;97304.72;5076665;28;19928;-58
2023/04/15 07:03:01;;;;;;;;;;;;;;;9.79;56.06;97308.72;5060431;28;20129;-58
2023/04/15 07:05:27;;;;;;;;;;;;;;;9.95;55.69;97305.22;5059180;28;19926;-58
2023/04/15 07:07:52;;;;;;;;;;;;;;;10.00;55.67;97296.88;5046593;28;19921;-58
2023/04/15 07:10:20;;;;;;;;;;;;;;;10.01;54.58;97304.50;5063845;28;19924;-58
2023/04/15 07:12:45;;;;;;;;;;;;;;;10.11;53.95;97295.66;5074769;28;19920;-58
2023/04/15 07:15:11;;;;;;;;;;;;;;;10.19;54.05;97296.44;5081576;28;19927;-59
2023/04/15 07:17:37;;;;;;;;;;;;;;;10.24;53.24;97293.31;5086028;28;20062;-58
2023/04/15 07:20:03;;;;;;;;;;;;;;;10.18;53.14;97292.22;5052166;28;19968;-58
2023/04/15 07:22:31;;;;;;;;;;;;;;;10.20;51.41;97290.25;5069149;28;19932;-58
2023/04/15 07:24:58;;;;;;;;;;;;;;;10.20;50.29;97292.03;5070259;28;20367;-58
2023/04/15 07:27:24;;;;;;;;;;;;;;;10.36;50.59;97272.94;5066819;28;20062;-58
2023/04/15 07:29:50;;;;;;;;;;;;;;;10.37;50.38;97282.38;5047808;28;20442;-58
2023/04/15 07:32:16;;;;;;;;;;;;;;;10.40;50.05;97282.00;5064094;28;19932;-58
2023/04/15 07:34:42;;;;;;;;;;;;;;;10.45;49.68;97273.69;5069563;28;20338;-59
2023/04/15 07:37:08;;;;;;;;;;;;;;;10.30;49.13;97277.03;5059093;28;20773;-58
2023/04/15 07:39:33;;;;;;;;;;;;;;;10.28;50.05;97279.00;5078008;28;19939;-58
2023/04/15 07:41:59;;;;;;;;;;;;;;;10.29;51.08;97280.59;5055790;28;19924;-58
2023/04/15 07:44:25;;;;;;;;;;;;;;;10.31;49.94;97280.44;5055768;28;20302;-59
2023/04/15 07:46:50;;;;;;;;;;;;;;;10.28;50.98;97280.78;5072326;28;20928;-59
2023/04/15 07:49:18;;;;;;;;;;;;;;;10.23;51.38;97283.09;5045853;28;19920;-58
2023/04/15 07:51:43;;;;;;;;;;;;;;;10.19;50.75;97280.03;5079227;28;19928;-58
2023/04/15 07:54:08;;;;;;;;;;;;;;;10.22;49.76;97279.66;5048657;28;19973;-58
2023/04/15 07:56:34;;;;;;;;;;;;;;;10.31;49.02;97273.47;5058657;28;19927;-59
2023/04/15 07:59:01;;;;;;;;;;;;;;;10.32;50.60;97275.09;5056093;28;19920;-58
2023/04/15 08:01:26;;;;;;;;;;;;;;;10.32;50.93;97272.47;5055601;28;19974;-58
2023/04/15 08:03:51;;;;;;;;;;;;;;;10.32;52.25;97275.09;5077130;28;19920;-57
2023/04/15 08:06:21;;;;;;;;;;;;;;;10.47;52.43;97271.72;5041130;28;20209;-58
2023/04/15 08:08:47;;;;;;;;;;;;;;;10.41;53.47;97275.81;5088245;28;20047;-58
2023/04/15 08:11:15;;;;;;;;;;;;;;;10.57;53.91;97274.88;5083855;28;20487;-58
2023/04/15 08:13:40;;;;;;;;;;;;;;;10.52;55.06;97269.41;5066180;28;20041;-58
2023/04/15 08:16:15;;;;;;;;;;;;;;;10.55;55.02;97272.44;5059613;28;20006;-58
2023/04/15 08:18:40;;;;;;;;;;;;;;;10.52;55.28;97270.19;5078287;28;19964;-58
2023/04/15 08:21:05;;;;;;;;;;;;;;;10.57;55.42;97272.28;5064572;28;20748;-58
2023/04/15 08:23:32;;;;;;;;;;;;;;;10.64;55.17;97268.00;5042514;28;21159;-58
2023/04/15 08:25:57;;;;;;;;;;;;;;;10.37;55.19;97212.22;5073160;28;19924;-58
2023/04/15 08:28:23;;;;;;;;;;;;;;;10.75;53.83;97261.50;5056514;28;19920;-58
2023/04/15 08:30:48;;;;;;;;;;;;;;;10.85;52.89;97262.06;5060521;28;20307;-58
2023/04/15 08:33:16;;;;;;;;;;;;;;;11.63;51.01;97259.81;5057825;28;19933;-58
2023/04/15 08:35:41;;;;;;;;;;;;;;;14.21;44.68;97265.09;5060930;28;19924;-57
2023/04/15 08:38:06;;;;;;;;;;;;;;;15.65;42.55;97252.06;5068716;28;19923;-58
2023/04/15 08:40:35;;;;;;;;;;;;;;;16.95;38.64;97259.34;5065979;28;20587;-57
2023/04/15 08:43:00;;;;;;;;;;;;;;;16.86;37.96;97252.78;5061364;28;19946;-59
2023/04/15 08:45:26;;;;;;;;;;;;;;;17.01;37.46;97244.53;5063849;28;20347;-58
2023/04/15 08:47:51;;;;;;;;;;;;;;;16.59;37.97;97239.91;5082250;28;20009;-58
2023/04/15 08:50:16;;;;;;;;;;;;;;;16.18;36.98;97241.25;5069524;28;19949;-58
2023/04/15 08:52:42;;;;;;;;;;;;;;;15.53;39.60;97244.88;5094503;28;19970;-59
2023/04/15 08:55:08;;;;;;;;;;;;;;;14.64;41.40;97240.34;5066184;28;19924;-58
2023/04/15 08:57:33;;;;;;;;;;;;;;;13.99;42.76;97248.78;5062403;28;19924;-59
2023/04/15 08:59:59;;;;;;;;;;;;;;;13.92;42.97;97243.53;5065660;28;20382;-59
2023/04/15 09:02:27;;;;;;;;;;;;;;;13.81;42.97;97244.94;5051000;28;19967;-59
2023/04/15 09:04:55;;;;;;;;;;;;;;;13.67;43.13;97239.88;5073020;28;19932;-59
2023/04/15 09:07:21;;;;;;;;;;;;;;;13.55;43.20;97237.84;5049429;28;19955;-59
2023/04/15 09:09:49;;;;;;;;;;;;;;;13.49;43.83;97230.00;5086284;28;19956;-59
2023/04/15 09:12:16;;;;;;;;;;;;;;;13.46;43.76;97233.81;5045558;28;20264;-59
2023/04/15 09:14:44;;;;;;;;;;;;;;;13.26;44.27;97226.69;5055110;28;19927;-59
2023/04/15 09:17:11;;;;;;;;;;;;;;;13.48;43.29;97226.59;5084806;28;20439;-59
2023/04/15 09:19:37;;;;;;;;;;;;;;;13.55;42.42;97219.56;5061829;28;19988;-59
2023/04/15 09:22:02;;;;;;;;;;;;;;;13.51;43.79;97218.38;5079675;28;20355;-58
2023/04/15 09:24:38;;;;;;;;;;;;;;;13.42;44.29;97216.94;5074091;28;19942;-58
2023/04/15 09:27:03;;;;;;;;;;;;;;;13.54;41.80;97214.53;5047946;28;20030;-58
2023/04/15 09:29:31;;;;;;;;;;;;;;;13.64;42.00;97218.38;5065071;28;20018;-58
2023/04/15 09:31:56;;;;;;;;;;;;;;;13.64;43.85;97207.13;5082570;28;19920;-58
2023/04/15 09:34:24;;;;;;;;;;;;;;;13.53;43.45;97200.69;5060937;28;19924;-58
2023/04/15 09:36:49;;;;;;;;;;;;;;;13.43;42.56;97205.47;5068792;28;19931;-58
2023/04/15 09:39:14;;;;;;;;;;;;;;;13.38;41.80;97203.47;5085181;28;19924;-58
2023/04/15 09:41:40;;;;;;;;;;;;;;;13.33;41.23;97202.44;5084733;28;19920;-58
2023/04/15 09:44:05;;;;;;;;;;;;;;;13.37;41.18;97194.00;5045537;28;19997;-59
2023/04/15 09:46:43;;;;;;;;;;;;;;;13.42;41.39;97199.47;5083679;28;19928;-59
2023/04/15 09:49:09;;;;;;;;;;;;;;;13.46;41.19;97195.44;5040827;28;20030;-58
2023/04/15 09:51:35;;;;;;;;;;;;;;;13.54;43.21;97197.06;5084681;28;19942;-59
2023/04/15 09:54:01;;;;;;;;;;;;;;;13.67;43.00;97192.88;5075409;28;19921;-58
2023/04/15 09:56:33;;;;;;;;;;;;;;;13.80;41.61;97196.31;5060949;28;19928;-58
2023/04/15 09:58:59;;;;;;;;;;;;;;;13.97;41.85;97188.09;5053735;28;19920;-58
2023/04/15 10:01:24;;;;;;;;;;;;;;;14.03;40.88;97189.88;5084157;28;19932;-58
2023/04/15 10:03:49;;;;;;;;;;;;;;;14.30;39.81;97172.38;5062548;28;19931;-59
2023/04/15 10:06:17;;;;;;;;;;;;;;;14.33;41.31;97171.97;5097073;28;20030;-58
2023/04/15 10:08:42;;;;;;;;;;;;;;;14.41;42.17;97173.56;5038565;28;19995;-58
2023/04/15 10:11:08;;;;;;;;;;;;;;;14.54;41.17;97170.91;5084808;28;19924;-58
2023/04/15 10:13:35;;;;;;;;;;;;;;;14.86;39.02;97170.25;5073344;28;19928;-58
2023/04/15 10:16:10;;;;;;;;;;;;;;;14.91;38.46;97167.81;5075768;28;19926;-58
2023/04/15 10:18:40;;;;;;;;;;;;;;;14.95;38.30;97169.81;5059051;28;19920;-58
2023/04/15 10:21:06;;;;;;;;;;;;;;;14.75;38.72;97137.69;5070593;28;19924;-58
2023/04/15 10:23:31;;;;;;;;;;;;;;;14.92;38.63;97162.38;5075948;28;19927;-59
2023/04/15 10:25:59;;;;;;;;;;;;;;;14.96;38.79;97158.31;5043313;28;20401;-58
2023/04/15 10:28:25;;;;;;;;;;;;;;;15.02;38.22;97151.44;5050694;28;20391;-58
2023/04/15 10:30:51;;;;;;;;;;;;;;;15.17;37.64;97161.66;5061828;28;19935;-58
2023/04/15 10:33:19;;;;;;;;;;;;;;;15.35;36.30;97156.53;5053906;28;19921;-60
2023/04/15 10:35:46;;;;;;;;;;;;;;;15.18;38.09;97148.34;5051005;28;19947;-58
2023/04/15 10:38:32;;;;;;;;;;;;;;;15.13;39.27;97147.38;5038156;28;20352;-58
2023/04/15 10:41:14;;;;;;;;;;;;;;;15.03;39.23;97157.50;5070654;28;20059;-58
2023/04/15 10:43:50;;;;;;;;;;;;;;;15.00;38.95;97150.84;5084644;28;19924;-58
2023/04/15 10:46:41;;;;;;;;;;;;;;;15.01;40.31;97152.47;5060942;28;21010;-59
2023/04/15 10:49:16;;;;;;;;;;;;;;;15.02;39.42;97143.59;5045927;28;19928;-58
2023/04/15 10:51:45;;;;;;;;;;;;;;;15.06;38.93;97144.81;5031339;28;20054;-58
2023/04/15 10:54:16;;;;;;;;;;;;;;;15.09;39.34;97138.34;5065049;28;19924;-57
2023/04/15 10:56:43;;;;;;;;;;;;;;;15.08;39.53;97134.13;5039526;28;19924;-58
2023/04/15 10:59:08;;;;;;;;;;;;;;;15.14;40.73;97135.91;5018960;28;19925;-58
2023/04/15 11:02:09;;;;;;;;;;;;;;;15.17;40.57;97138.91;5044709;28;19935;-58
2023/04/15 11:04:52;;;;;;;;;;;;;;;15.28;40.17;97126.97;4976651;28;20342;-58
2023/04/15 11:07:39;;;;;;;;;;;;;;;15.40;41.37;97134.13;5048293;28;20805;-58
2023/04/15 11:10:20;;;;;;;;;;;;;;;15.41;41.06;97126.06;5030951;28;20016;-59
2023/04/15 11:12:46;;;;;;;;;;;;;;;15.45;41.65;97129.06;5042690;28;20727;-59
2023/04/15 11:15:30;;;;;;;;;;;;;;;15.45;41.97;97132.50;5041051;28;20030;-59
2023/04/15 11:17:59;;;;;;;;;;;;;;;15.47;41.51;97133.06;5047685;28;19934;-58
2023/04/15 11:20:27;;;;;;;;;;;;;;;15.52;41.30;97125.38;5037339;28;19929;-58
2023/04/15 11:22:53;;;;;;;;;;;;;;;15.56;41.48;97117.91;5033157;28;20038;-59
2023/04/15 11:25:25;;;;;;;;;;;;;;;15.58;40.72;97114.03;5041943;28;19970;-58
2023/04/15 11:27:53;;;;;;;;;;;;;;;15.62;40.65;97117.03;5044863;28;20818;-59
2023/04/15 11:30:22;;;;;;;;;;;;;;;15.70;41.50;97116.78;5040633;28;19921;-58
2023/04/15 11:32:48;;;;;;;;;;;;;;;15.64;41.47;97116.84;5045076;28;19966;-59
2023/04/15 11:35:13;;;;;;;;;;;;;;;15.72;41.02;97113.97;5029141;28;19929;-59
2023/04/15 11:37:41;;;;;;;;;;;;;;;15.58;41.38;97108.00;5038983;28;19971;-58
2023/04/15 11:40:07;;;;;;;;;;;;;;;15.68;41.61;97110.97;5037876;28;20493;-59
2023/04/15 11:42:35;;;;;;;;;;;;;;;15.66;40.67;97109.56;5034996;28;20227;-59
2023/04/15 11:45:10;;;;;;;;;;;;;;;15.87;40.35;97109.22;5048448;28;20388;-58
2023/04/15 11:47:36;;;;;;;;;;;;;;;15.87;41.59;97108.44;5047007;28;20596;-59
2023/04/15 11:50:13;;;;;;;;;;;;;;;15.90;41.47;97110.63;5057178;28;19924;-58
2023/04/15 11:52:39;;;;;;;;;;;;;;;15.93;41.19;97111.00;5080412;28;19916;-58
2023/04/15 11:55:06;;;;;;;;;;;;;;;16.02;41.40;97102.84;5078143;28;19926;-59
2023/04/15 11:57:31;;;;;;;;;;;;;;;16.20;40.94;97104.69;5051286;28;19924;-59
2023/04/15 11:59:57;;;;;;;;;;;;;;;16.17;41.16;97110.34;5059315;28;20026;-58
2023/04/15 12:02:29;;;;;;;;;;;;;;;16.01;40.79;97117.78;5033885;28;19979;-58
2023/04/15 12:05:02;;;;;;;;;;;;;;;15.92;40.77;97111.22;5079127;28;19971;-59
2023/04/15 12:07:28;;;;;;;;;;;;;;;15.99;40.75;97111.13;5042438;28;19920;-59
2023/04/15 12:09:56;;;;;;;;;;;;;;;16.09;40.75;97112.25;5059183;28;20066;-58
2023/04/15 12:12:28;;;;;;;;;;;;;;;16.14;39.84;97109.78;5073448;28;20393;-59
2023/04/15 12:14:55;;;;;;;;;;;;;;;16.25;40.40;97115.34;5056052;28;19977;-59
2023/04/15 12:17:21;;;;;;;;;;;;;;;16.24;39.32;97117.13;5047530;28;19924;-59
2023/04/15 12:19:47;;;;;;;;;;;;;;;16.26;40.72;97115.13;5025971;28;19955;-59
2023/04/15 12:22:16;;;;;;;;;;;;;;;16.21;39.47;97116.78;5053943;28;19928;-59
2023/04/15 12:24:47;;;;;;;;;;;;;;;16.25;40.13;97117.97;5056781;28;19973;-59
2023/04/15 12:27:18;;;;;;;;;;;;;;;16.32;39.33;97114.25;5026182;28;19925;-58
2023/04/15 12:29:44;;;;;;;;;;;;;;;16.43;40.02;97119.78;5061882;28;19931;-59
2023/04/15 12:32:18;;;;;;;;;;;;;;;16.51;39.19;97124.75;5042898;28;19928;-59
2023/04/15 12:34:48;;;;;;;;;;;;;;;16.60;38.96;97131.28;5071707;28;20374;-58
2023/04/15 12:37:13;;;;;;;;;;;;;;;16.65;39.36;97120.94;5075154;28;19927;-58
2023/04/15 12:39:40;;;;;;;;;;;;;;;16.61;38.72;97122.41;5070054;28;19920;-59
2023/04/15 12:42:08;;;;;;;;;;;;;;;16.53;38.87;97125.31;5059847;28;19969;-59
2023/04/15 12:44:34;;;;;;;;;;;;;;;16.72;39.92;97132.16;5056742;28;20530;-59
2023/04/15 12:47:01;;;;;;;;;;;;;;;16.85;39.06;97130.44;5048863;28;19921;-58
2023/04/15 12:49:27;;;;;;;;;;;;;;;16.84;39.20;97129.63;5037014;28;20800;-58
2023/04/15 12:51:56;;;;;;;;;;;;;;;16.93;37.60;97137.22;5038087;28;19920;-58